Time;durP1;ratioP1;P1;durP2;ratioP2;P2;SDS_P1;SDS_P2;PMS_P1;PMS_P2;Temp;Humidity;BMP_temperature;BMP_pressure;BME280_temperature;BME280_humidity;BME280_pressure;Samples;Min_cycle;Max_cycle;Signal;HPM_P1;HPM_P2
2021/05/23 00:00:28;;;;;;;5.55;1.80;;;11.00;87.60;;;;;;5056312;28;20104;-72
2021/05/23 00:02:56;;;;;;;5.10;1.50;;;11.00;87.70;;;;;;5063270;28;20036;-72
2021/05/23 00:05:25;;;;;;;5.03;1.80;;;11.00;87.70;;;;;;5062303;28;20054;-72
2021/05/23 00:08:18;;;;;;;8.02;1.70;;;11.00;87.40;;;;;;5061858;28;20052;-72
2021/05/23 00:10:58;;;;;;;7.22;1.80;;;10.90;87.50;;;;;;5051453;28;20043;-72
2021/05/23 00:13:37;;;;;;;6.88;1.85;;;10.90;87.70;;;;;;5060505;28;20726;-72
2021/05/23 00:16:09;;;;;;;8.18;2.20;;;10.90;88.00;;;;;;5054678;28;20036;-72
2021/05/23 00:18:39;;;;;;;5.13;1.58;;;10.90;87.80;;;;;;5062316;28;20024;-71
2021/05/23 00:21:06;;;;;;;8.73;1.83;;;10.90;88.10;;;;;;5062799;28;20021;-72
2021/05/23 00:23:32;;;;;;;5.80;1.50;;;10.90;87.70;;;;;;5062613;28;20402;-72
2021/05/23 00:25:58;;;;;;;4.40;1.92;;;10.80;87.30;;;;;;5063870;28;20028;-72
2021/05/23 00:28:25;;;;;;;7.22;2.83;;;10.80;87.80;;;;;;5063530;28;20029;-72
2021/05/23 00:30:51;;;;;;;7.78;1.92;;;10.80;87.80;;;;;;5064161;28;20033;-72
2021/05/23 00:33:18;;;;;;;3.10;1.20;;;10.90;87.80;;;;;;5061337;28;20293;-72
2021/05/23 00:35:43;;;;;;;6.22;1.90;;;10.90;87.90;;;;;;5061437;28;20536;-72
2021/05/23 00:38:10;;;;;;;4.50;1.50;;;10.80;87.10;;;;;;5062834;28;20024;-71
2021/05/23 00:40:37;;;;;;;6.22;2.28;;;10.80;87.20;;;;;;5063402;28;20059;-71
2021/05/23 00:43:11;;;;;;;9.35;2.00;;;10.80;87.50;;;;;;5062491;28;20033;-72
2021/05/23 00:45:37;;;;;;;9.70;2.22;;;10.80;87.40;;;;;;5063323;28;20031;-72
2021/05/23 00:48:04;;;;;;;4.93;1.50;;;10.80;87.50;;;;;;5062522;28;20020;-72
2021/05/23 00:50:33;;;;;;;7.40;1.73;;;10.80;87.70;;;;;;5065282;28;20028;-72
2021/05/23 00:53:01;;;;;;;4.28;1.52;;;10.80;87.80;;;;;;5062471;28;20029;-72
2021/05/23 00:55:27;;;;;;;6.25;1.48;;;10.70;87.60;;;;;;5063978;28;20490;-72
2021/05/23 00:57:53;;;;;;;6.00;1.40;;;10.70;87.50;;;;;;5058214;28;20025;-72
2021/05/23 01:00:41;;;;;;;6.28;1.85;;;10.80;87.60;;;;;;5062304;28;20060;-72
2021/05/23 01:03:29;;;;;;;7.28;1.63;;;10.70;86.80;;;;;;5062088;28;20036;-72
2021/05/23 01:05:57;;;;;;;7.50;1.83;;;10.80;87.50;;;;;;5062577;28;20036;-72
2021/05/23 01:08:24;;;;;;;12.05;1.60;;;10.70;87.40;;;;;;5059996;28;20036;-72
2021/05/23 01:11:29;;;;;;;4.80;1.70;;;10.70;87.60;;;;;;5062889;28;20036;-72
2021/05/23 01:14:00;;;;;;;14.27;1.90;;;10.70;87.60;;;;;;5043847;28;20055;-72
2021/05/23 01:16:35;;;;;;;7.72;1.80;;;10.70;87.70;;;;;;5062575;28;20033;-72
2021/05/23 01:19:21;;;;;;;8.07;2.00;;;10.70;87.70;;;;;;5062079;28;20029;-72
2021/05/23 01:21:53;;;;;;;5.63;1.55;;;10.70;87.90;;;;;;5061692;28;20036;-72
2021/05/23 01:24:35;;;;;;;4.75;1.52;;;10.70;87.20;;;;;;5043625;28;20035;-72
2021/05/23 01:27:01;;;;;;;8.85;2.05;;;10.70;87.50;;;;;;5062477;28;20037;-72
2021/05/23 01:29:28;;;;;;;10.77;1.60;;;10.70;87.60;;;;;;5063680;28;20233;-72
2021/05/23 01:31:55;;;;;;;5.47;1.58;;;10.70;87.60;;;;;;5039523;28;20053;-72
2021/05/23 01:34:22;;;;;;;4.50;1.38;;;10.70;87.60;;;;;;5060434;28;20032;-72
2021/05/23 01:36:51;;;;;;;4.45;1.70;;;10.80;87.60;;;;;;5058726;28;20094;-72
2021/05/23 01:39:18;;;;;;;6.45;1.60;;;10.80;87.50;;;;;;5061342;28;20503;-72
2021/05/23 01:41:44;;;;;;;7.70;1.33;;;10.80;87.50;;;;;;5059479;28;20549;-72
2021/05/23 01:44:10;;;;;;;4.35;1.35;;;10.80;87.40;;;;;;5062238;28;20033;-72
2021/05/23 01:46:43;;;;;;;5.55;1.77;;;10.70;87.30;;;;;;5064776;28;20857;-71
2021/05/23 01:49:09;;;;;;;7.00;1.60;;;10.70;87.50;;;;;;5061627;28;20036;-72
2021/05/23 01:51:35;;;;;;;5.45;1.67;;;10.70;87.50;;;;;;5063132;28;20035;-72
2021/05/23 01:54:01;;;;;;;5.80;1.70;;;10.70;87.60;;;;;;5059996;28;20039;-72
2021/05/23 01:56:27;;;;;;;4.45;1.35;;;10.70;87.40;;;;;;5062967;28;20024;-72
2021/05/23 01:58:53;;;;;;;4.55;1.38;;;10.70;86.70;;;;;;5062858;28;20052;-72
2021/05/23 02:01:20;;;;;;;3.65;1.55;;;10.70;86.40;;;;;;5042674;28;20067;-72
2021/05/23 02:03:46;;;;;;;6.97;1.50;;;10.70;86.70;;;;;;5044733;28;20060;-72
2021/05/23 02:06:12;;;;;;;5.28;1.95;;;10.60;86.80;;;;;;5061057;28;20021;-72
2021/05/23 02:08:38;;;;;;;7.40;1.40;;;10.70;86.80;;;;;;5061211;28;20478;-72
2021/05/23 02:11:07;;;;;;;6.68;1.63;;;10.70;86.80;;;;;;5041225;28;20024;-72
2021/05/23 02:13:37;;;;;;;6.50;1.73;;;10.70;86.80;;;;;;5063281;28;20036;-72
2021/05/23 02:16:07;;;;;;;5.70;1.52;;;10.70;86.50;;;;;;5043311;28;20080;-72
2021/05/23 02:18:36;;;;;;;5.10;1.58;;;10.60;86.40;;;;;;5059869;28;20059;-72
2021/05/23 02:21:03;;;;;;;6.93;1.70;;;10.60;86.70;;;;;;5061168;28;20501;-72
2021/05/23 02:23:29;;;;;;;7.38;1.85;;;10.60;86.90;;;;;;5061656;28;20024;-72
2021/05/23 02:25:56;;;;;;;6.93;1.75;;;10.60;86.10;;;;;;5066826;28;20036;-72
2021/05/23 02:28:22;;;;;;;5.28;1.50;;;10.60;86.70;;;;;;5066639;28;20402;-72
2021/05/23 02:30:54;;;;;;;8.15;1.50;;;10.60;86.80;;;;;;5064589;28;20033;-72
2021/05/23 02:33:21;;;;;;;9.60;1.80;;;10.60;86.50;;;;;;5068777;28;20074;-74
2021/05/23 02:35:50;;;;;;;6.43;1.83;;;10.60;86.70;;;;;;5046083;28;20100;-72
2021/05/23 02:38:17;;;;;;;6.88;1.70;;;10.60;87.00;;;;;;5061540;28;20031;-72
2021/05/23 02:40:44;;;;;;;9.48;2.00;;;10.60;87.10;;;;;;5063488;28;20032;-72
2021/05/23 02:43:11;;;;;;;5.60;1.77;;;10.60;87.00;;;;;;5062475;28;20471;-72
2021/05/23 02:45:38;;;;;;;6.30;1.90;;;10.60;86.80;;;;;;5065815;28;20033;-72
2021/05/23 02:48:06;;;;;;;8.75;2.00;;;10.60;87.30;;;;;;5061898;28;20028;-72
2021/05/23 02:50:35;;;;;;;6.88;1.73;;;10.60;87.20;;;;;;5065443;28;20024;-72
2021/05/23 02:53:05;;;;;;;6.47;1.80;;;10.60;87.40;;;;;;5063189;28;20422;-71
2021/05/23 02:55:31;;;;;;;5.75;2.03;;;10.60;87.30;;;;;;5067457;28;20364;-71
2021/05/23 02:57:56;;;;;;;6.95;1.83;;;10.50;86.90;;;;;;5046535;28;20031;-72
2021/05/23 03:00:23;;;;;;;7.47;1.50;;;10.50;87.20;;;;;;5065245;28;20028;-72
2021/05/23 03:02:51;;;;;;;10.65;2.05;;;10.50;87.70;;;;;;5045922;28;20033;-72
2021/05/23 03:05:18;;;;;;;5.15;1.92;;;10.50;87.40;;;;;;5062476;28;20071;-72
2021/05/23 03:07:47;;;;;;;6.50;1.70;;;10.40;87.70;;;;;;5063773;28;20116;-71
2021/05/23 03:10:26;;;;;;;8.45;2.38;;;10.40;88.00;;;;;;5069319;28;20025;-72
2021/05/23 03:12:52;;;;;;;7.13;1.95;;;10.40;88.10;;;;;;5067486;28;20486;-71
2021/05/23 03:15:21;;;;;;;8.10;2.03;;;10.40;88.00;;;;;;5064314;28;20402;-71
2021/05/23 03:17:47;;;;;;;9.98;1.88;;;10.30;88.30;;;;;;5066276;28;20166;-72
2021/05/23 03:20:15;;;;;;;7.85;1.90;;;10.30;88.40;;;;;;5063856;28;20108;-72
2021/05/23 03:22:42;;;;;;;8.18;1.95;;;10.30;88.50;;;;;;5061770;28;20081;-72
2021/05/23 03:25:10;;;;;;;7.07;1.85;;;10.30;88.60;;;;;;5063146;28;20044;-72
2021/05/23 03:27:36;;;;;;;9.93;2.13;;;10.30;88.50;;;;;;5065029;28;20060;-72
2021/05/23 03:30:05;;;;;;;10.68;2.33;;;10.30;88.60;;;;;;5063781;28;20028;-74
2021/05/23 03:32:30;;;;;;;6.82;2.22;;;10.30;88.60;;;;;;5063470;28;20032;-72
2021/05/23 03:34:56;;;;;;;8.57;2.42;;;10.30;88.80;;;;;;5063326;28;20036;-72
2021/05/23 03:37:22;;;;;;;6.88;1.55;;;10.20;88.90;;;;;;5063283;28;20025;-72
2021/05/23 03:39:47;;;;;;;8.50;2.88;;;10.30;88.90;;;;;;5062558;28;20039;-72
2021/05/23 03:42:13;;;;;;;7.13;2.20;;;10.20;88.90;;;;;;5063300;28;20025;-71
2021/05/23 03:44:39;;;;;;;6.65;1.67;;;10.20;88.80;;;;;;5061991;28;20053;-72
2021/05/23 03:47:05;;;;;;;7.10;1.75;;;10.10;89.10;;;;;;5063258;28;20078;-72
2021/05/23 03:49:30;;;;;;;10.18;2.47;;;10.10;89.20;;;;;;5045777;28;20028;-71
2021/05/23 03:51:56;;;;;;;6.20;1.73;;;10.10;89.20;;;;;;5063523;28;20033;-72
2021/05/23 03:54:22;;;;;;;7.75;2.08;;;10.10;89.30;;;;;;5064407;28;20379;-72
2021/05/23 03:56:48;;;;;;;8.07;2.22;;;10.10;89.50;;;;;;5063781;28;20040;-72
2021/05/23 03:59:13;;;;;;;7.53;2.08;;;10.10;89.50;;;;;;5063627;28;20024;-72
2021/05/23 04:01:39;;;;;;;8.13;2.00;;;10.10;89.80;;;;;;5062725;28;20078;-72
2021/05/23 04:04:07;;;;;;;6.43;1.70;;;10.10;89.60;;;;;;5061759;28;20481;-72
2021/05/23 04:06:32;;;;;;;11.70;2.60;;;10.00;89.90;;;;;;5062573;28;20074;-72
2021/05/23 04:08:58;;;;;;;11.18;2.35;;;10.00;89.90;;;;;;5062626;28;20032;-72
2021/05/23 04:11:31;;;;;;;10.65;2.05;;;10.00;90.00;;;;;;5063336;28;20039;-72
2021/05/23 04:13:56;;;;;;;9.77;2.28;;;10.00;89.90;;;;;;5062801;28;20083;-72
2021/05/23 04:16:22;;;;;;;11.07;2.40;;;10.00;90.00;;;;;;5061526;28;20020;-72
2021/05/23 04:18:50;;;;;;;7.35;1.90;;;10.00;90.00;;;;;;5063607;28;20043;-72
2021/05/23 04:21:17;;;;;;;8.10;2.00;;;10.00;90.00;;;;;;5063767;28;20096;-72
2021/05/23 04:23:42;;;;;;;10.48;2.60;;;10.00;90.00;;;;;;5062981;28;20028;-72
2021/05/23 04:26:08;;;;;;;6.90;2.28;;;9.90;90.00;;;;;;5047480;28;20082;-72
2021/05/23 04:28:34;;;;;;;7.80;2.08;;;9.90;89.90;;;;;;5063957;28;20040;-71
2021/05/23 04:30:59;;;;;;;6.18;1.85;;;9.90;90.10;;;;;;5065382;28;20421;-71
2021/05/23 04:33:25;;;;;;;10.43;1.92;;;9.90;90.00;;;;;;5060656;28;20024;-72
2021/05/23 04:35:51;;;;;;;9.77;2.00;;;9.90;90.00;;;;;;5062499;28;20035;-71
2021/05/23 04:38:17;;;;;;;7.35;2.08;;;9.90;90.10;;;;;;5063454;28;20028;-71
2021/05/23 04:40:43;;;;;;;6.25;2.25;;;9.90;89.90;;;;;;5061217;28;20108;-72
2021/05/23 04:43:09;;;;;;;7.63;1.90;;;9.90;89.80;;;;;;5062787;28;20112;-72
2021/05/23 04:45:36;;;;;;;7.18;2.40;;;10.00;89.90;;;;;;5064306;28;20036;-71
2021/05/23 04:48:03;;;;;;;11.93;2.30;;;10.00;89.70;;;;;;5065729;28;20024;-72
2021/05/23 04:50:29;;;;;;;13.73;2.38;;;10.00;89.50;;;;;;5059014;28;20041;-72
2021/05/23 04:52:55;;;;;;;9.85;2.60;;;10.00;89.20;;;;;;5063222;28;20130;-71
2021/05/23 04:55:21;;;;;;;6.55;2.22;;;10.00;89.10;;;;;;5061742;28;20039;-71
2021/05/23 04:57:46;;;;;;;10.60;2.15;;;10.00;89.10;;;;;;5041542;28;20020;-71
2021/05/23 05:00:13;;;;;;;6.57;1.90;;;10.10;88.90;;;;;;5061772;28;20351;-72
2021/05/23 05:02:41;;;;;;;10.63;2.00;;;10.00;89.00;;;;;;5063731;28;20039;-72
2021/05/23 05:05:08;;;;;;;9.45;2.40;;;10.00;89.30;;;;;;5061958;28;20028;-72
2021/05/23 05:07:34;;;;;;;10.98;2.67;;;10.00;89.30;;;;;;5060751;28;20029;-72
2021/05/23 05:10:01;;;;;;;7.72;1.90;;;10.00;89.50;;;;;;5063738;28;20039;-72
2021/05/23 05:12:26;;;;;;;8.27;2.03;;;10.00;89.20;;;;;;5060598;28;20036;-72
2021/05/23 05:14:52;;;;;;;9.10;1.77;;;10.10;89.10;;;;;;5059111;28;20037;-71
2021/05/23 05:17:18;;;;;;;8.75;2.53;;;10.10;89.20;;;;;;5056292;28;20035;-72
2021/05/23 05:19:44;;;;;;;10.88;2.80;;;10.10;89.10;;;;;;5059608;28;20475;-72
2021/05/23 05:22:10;;;;;;;9.10;2.10;;;10.10;88.80;;;;;;5062105;28;20024;-72
2021/05/23 05:24:35;;;;;;;8.93;2.53;;;10.10;88.90;;;;;;5062617;28;20107;-71
2021/05/23 05:27:04;;;;;;;10.45;1.60;;;10.10;88.60;;;;;;5066481;28;20032;-72
2021/05/23 05:29:30;;;;;;;18.00;2.00;;;10.20;88.80;;;;;;5059085;28;20043;-71
2021/05/23 05:31:56;;;;;;;6.70;1.63;;;10.20;88.60;;;;;;5062640;28;20029;-72
2021/05/23 05:34:22;;;;;;;10.95;2.15;;;10.20;88.80;;;;;;5059952;28;21105;-72
2021/05/23 05:36:47;;;;;;;6.22;2.17;;;10.20;89.10;;;;;;5058798;28;20048;-71
2021/05/23 05:39:13;;;;;;;5.85;1.80;;;10.20;89.00;;;;;;5062763;28;20033;-72
2021/05/23 05:41:39;;;;;;;8.77;3.30;;;10.20;89.10;;;;;;5060898;28;20352;-72
2021/05/23 05:44:05;;;;;;;4.63;1.90;;;10.20;89.00;;;;;;5063795;28;20033;-72
2021/05/23 05:46:31;;;;;;;8.18;2.17;;;10.20;89.00;;;;;;5038178;28;20119;-71
2021/05/23 05:48:56;;;;;;;10.38;2.05;;;10.30;88.90;;;;;;5062275;28;20105;-72
2021/05/23 05:51:22;;;;;;;8.20;2.00;;;10.30;88.20;;;;;;5042253;28;20059;-71
2021/05/23 05:53:48;;;;;;;14.13;2.40;;;10.30;88.70;;;;;;5060958;28;20378;-72
2021/05/23 05:56:14;;;;;;;8.10;1.77;;;10.40;88.50;;;;;;5056175;28;20025;-72
2021/05/23 05:58:40;;;;;;;7.82;2.35;;;10.40;88.60;;;;;;5058554;28;20025;-72
2021/05/23 06:01:06;;;;;;;7.95;2.22;;;10.40;87.60;;;;;;5061166;28;20524;-72
2021/05/23 06:03:32;;;;;;;9.10;2.10;;;10.50;87.70;;;;;;5063008;28;20034;-72
2021/05/23 06:06:01;;;;;;;7.63;1.85;;;10.50;88.00;;;;;;5064505;28;20029;-72
2021/05/23 06:08:27;;;;;;;7.05;1.80;;;10.50;87.50;;;;;;5061759;28;20436;-72
2021/05/23 06:10:52;;;;;;;12.55;2.53;;;10.40;88.00;;;;;;5063528;28;20033;-72
2021/05/23 06:13:18;;;;;;;8.45;1.98;;;10.40;88.00;;;;;;5064530;28;20118;-72
2021/05/23 06:15:44;;;;;;;7.57;1.88;;;10.40;87.70;;;;;;5064290;28;20054;-72
2021/05/23 06:18:10;;;;;;;10.35;1.98;;;10.50;87.80;;;;;;5062896;28;20032;-72
2021/05/23 06:20:35;;;;;;;10.45;2.10;;;10.60;87.80;;;;;;5061729;28;20029;-72
2021/05/23 06:23:01;;;;;;;7.90;1.52;;;10.60;86.90;;;;;;5066682;28;20067;-71
2021/05/23 06:25:27;;;;;;;6.85;2.13;;;10.60;87.00;;;;;;5063419;28;20541;-72
2021/05/23 06:27:52;;;;;;;9.07;2.03;;;10.60;87.00;;;;;;5065300;28;20126;-71
2021/05/23 06:30:19;;;;;;;8.25;2.17;;;10.60;86.40;;;;;;5048408;28;20036;-71
2021/05/23 06:32:45;;;;;;;7.55;2.10;;;10.60;86.60;;;;;;5063632;28;20085;-72
2021/05/23 06:35:12;;;;;;;8.73;2.00;;;10.70;86.20;;;;;;5061968;28;20463;-72
2021/05/23 06:37:38;;;;;;;8.77;2.28;;;10.70;86.00;;;;;;5061814;28;20167;-72
2021/05/23 06:40:05;;;;;;;10.70;2.42;;;10.80;85.70;;;;;;5065984;28;20490;-72
2021/05/23 06:42:31;;;;;;;12.10;2.45;;;10.80;85.70;;;;;;5063569;28;20017;-72
2021/05/23 06:44:57;;;;;;;8.45;1.90;;;10.90;85.70;;;;;;5066105;28;20070;-72
2021/05/23 06:47:23;;;;;;;7.32;1.70;;;10.90;85.00;;;;;;5066170;28;20032;-72
2021/05/23 06:49:49;;;;;;;9.45;2.05;;;11.00;85.40;;;;;;5065099;28;20046;-72
2021/05/23 06:52:17;;;;;;;6.72;1.83;;;11.00;83.10;;;;;;5065720;28;20037;-72
2021/05/23 06:54:43;;;;;;;10.80;2.25;;;11.00;83.30;;;;;;5064527;28;20570;-72
2021/05/23 06:57:09;;;;;;;9.88;1.98;;;11.10;84.00;;;;;;5061778;28;20025;-72
2021/05/23 06:59:34;;;;;;;8.27;2.00;;;11.20;84.20;;;;;;5062685;28;20552;-72
2021/05/23 07:02:01;;;;;;;11.05;1.75;;;11.30;84.30;;;;;;5063901;28;20028;-72
2021/05/23 07:04:27;;;;;;;8.25;1.77;;;11.30;82.70;;;;;;5044044;28;20079;-72
2021/05/23 07:06:52;;;;;;;10.10;1.95;;;11.40;82.50;;;;;;5063586;28;20037;-72
2021/05/23 07:09:18;;;;;;;11.55;1.80;;;11.40;82.40;;;;;;5061847;28;20044;-72
2021/05/23 07:11:44;;;;;;;10.88;1.75;;;11.50;82.80;;;;;;5065042;28;20021;-72
2021/05/23 07:14:09;;;;;;;8.02;2.00;;;11.60;82.50;;;;;;5063465;28;20029;-73
2021/05/23 07:16:35;;;;;;;11.98;2.58;;;11.60;82.60;;;;;;5048370;28;20037;-72
2021/05/23 07:19:01;;;;;;;10.73;2.47;;;11.70;83.00;;;;;;5062720;28;20035;-72
2021/05/23 07:21:26;;;;;;;9.70;1.90;;;11.80;82.30;;;;;;5062734;28;20063;-72
2021/05/23 07:23:52;;;;;;;8.70;1.85;;;11.90;81.70;;;;;;5046721;28;20059;-72
2021/05/23 07:26:19;;;;;;;5.68;1.63;;;11.90;82.10;;;;;;5062302;28;20043;-71
2021/05/23 07:28:45;;;;;;;9.85;2.20;;;11.90;82.30;;;;;;5062238;28;20751;-72
2021/05/23 07:31:11;;;;;;;10.18;1.80;;;12.00;82.70;;;;;;5066495;28;20068;-72
2021/05/23 07:33:37;;;;;;;9.50;1.55;;;12.10;82.20;;;;;;5063622;28;20056;-72
2021/05/23 07:36:06;;;;;;;11.25;2.42;;;12.10;81.50;;;;;;5063949;28;20516;-72
2021/05/23 07:38:32;;;;;;;11.85;1.90;;;12.10;80.40;;;;;;5062770;28;20024;-72
2021/05/23 07:40:58;;;;;;;8.23;1.75;;;12.10;80.90;;;;;;5064853;28;20024;-73
2021/05/23 07:43:23;;;;;;;9.60;1.98;;;12.00;80.90;;;;;;5064523;28;20028;-72
2021/05/23 07:45:49;;;;;;;6.55;1.80;;;12.00;79.00;;;;;;5064122;28;20040;-73
2021/05/23 07:48:15;;;;;;;6.10;1.85;;;12.00;80.00;;;;;;5063626;28;20066;-75
2021/05/23 07:50:41;;;;;;;4.93;1.05;;;12.10;79.70;;;;;;5044256;28;20021;-74
2021/05/23 07:53:06;;;;;;;7.90;1.95;;;12.10;79.30;;;;;;5068304;28;20036;-73
2021/05/23 07:55:32;;;;;;;6.32;1.38;;;12.20;76.40;;;;;;5063675;28;20021;-72
2021/05/23 07:57:58;;;;;;;5.78;1.65;;;12.20;78.30;;;;;;5064991;28;20033;-74
2021/05/23 08:00:24;;;;;;;8.23;2.22;;;12.20;78.70;;;;;;5062367;28;20029;-74
2021/05/23 08:02:50;;;;;;;6.72;1.70;;;12.20;78.20;;;;;;5044461;28;20027;-70
2021/05/23 08:05:16;;;;;;;11.68;1.98;;;12.30;78.30;;;;;;5061695;28;20032;-70
2021/05/23 08:07:42;;;;;;;5.13;1.30;;;12.30;77.20;;;;;;5061163;28;20029;-70
2021/05/23 08:10:08;;;;;;;13.95;2.25;;;12.30;77.90;;;;;;5064330;28;20029;-71
2021/05/23 08:12:35;;;;;;;7.28;1.60;;;12.30;78.30;;;;;;5060256;28;20538;-71
2021/05/23 08:15:01;;;;;;;4.95;1.63;;;12.40;77.30;;;;;;5061310;28;20036;-71
2021/05/23 08:17:27;;;;;;;6.22;1.38;;;12.40;78.50;;;;;;5041839;28;20024;-70
2021/05/23 08:19:52;;;;;;;6.13;1.52;;;12.60;77.70;;;;;;5064332;28;20108;-73
2021/05/23 08:22:19;;;;;;;6.15;2.13;;;12.70;77.80;;;;;;5061238;28;20363;-72
2021/05/23 08:24:46;;;;;;;5.65;1.40;;;12.80;77.30;;;;;;5044506;28;20024;-70
2021/05/23 08:27:12;;;;;;;7.55;2.22;;;12.80;76.30;;;;;;5061960;28;20039;-73
2021/05/23 08:29:37;;;;;;;11.73;3.22;;;12.80;75.10;;;;;;5061967;28;20040;-72
2021/05/23 08:32:04;;;;;;;4.60;1.60;;;12.80;76.30;;;;;;5071553;28;20055;-72
2021/05/23 08:34:30;;;;;;;7.10;1.60;;;12.80;75.80;;;;;;5066382;28;20029;-73
2021/05/23 08:36:56;;;;;;;4.50;1.35;;;12.80;73.00;;;;;;5069585;28;20039;-72
2021/05/23 08:39:21;;;;;;;8.65;1.98;;;12.70;74.70;;;;;;5042788;28;20044;-72
2021/05/23 08:41:53;;;;;;;10.30;1.90;;;12.60;74.90;;;;;;5071803;28;20060;-74
2021/05/23 08:44:20;;;;;;;5.97;1.73;;;12.60;75.70;;;;;;5066801;28;20024;-73
2021/05/23 08:46:47;;;;;;;7.15;1.77;;;12.60;75.90;;;;;;5068924;28;20029;-73
2021/05/23 08:49:18;;;;;;;7.20;1.52;;;12.60;76.30;;;;;;5047127;28;20020;-72
2021/05/23 08:51:45;;;;;;;5.68;1.27;;;12.80;76.70;;;;;;5069323;28;20182;-74
2021/05/23 08:54:12;;;;;;;7.35;1.50;;;12.90;76.30;;;;;;5070297;28;20351;-74
2021/05/23 08:56:40;;;;;;;6.05;2.08;;;13.10;76.10;;;;;;5065833;28;20081;-74
2021/05/23 08:59:06;;;;;;;4.05;1.30;;;13.30;72.10;;;;;;5049795;28;20112;-71
2021/05/23 09:01:32;;;;;;;8.25;1.58;;;13.30;73.40;;;;;;5059818;28;20494;-71
2021/05/23 09:03:59;;;;;;;9.07;1.48;;;13.30;72.40;;;;;;5064104;28;20051;-73
2021/05/23 09:06:30;;;;;;;6.40;1.65;;;13.30;72.70;;;;;;5063204;28;20068;-72
2021/05/23 09:08:58;;;;;;;11.00;2.15;;;13.40;72.20;;;;;;5063543;28;20167;-71
2021/05/23 09:11:24;;;;;;;4.88;1.30;;;13.40;71.30;;;;;;5061113;28;20039;-72
2021/05/23 09:13:51;;;;;;;6.47;1.50;;;13.40;72.60;;;;;;5062723;28;20040;-72
2021/05/23 09:16:17;;;;;;;7.13;1.70;;;13.30;72.90;;;;;;5067290;28;20021;-72
2021/05/23 09:18:56;;;;;;;4.97;1.20;;;13.20;72.20;;;;;;5064606;28;20391;-73
2021/05/23 09:21:36;;;;;;;8.77;1.42;;;13.20;73.40;;;;;;5064380;28;20060;-74
2021/05/23 09:24:11;;;;;;;9.93;1.67;;;13.10;73.40;;;;;;5058744;28;20069;-75
2021/05/23 09:26:42;;;;;;;5.68;1.38;;;13.20;72.00;;;;;;5066039;28;20553;-73
2021/05/23 09:29:14;;;;;;;6.72;1.50;;;13.10;71.40;;;;;;5068183;28;20036;-72
2021/05/23 09:31:40;;;;;;;7.85;1.58;;;13.20;71.80;;;;;;5067445;28;20092;-73
2021/05/23 09:34:07;;;;;;;8.00;1.60;;;13.10;70.20;;;;;;5062529;28;20102;-73
2021/05/23 09:36:46;;;;;;;7.13;1.25;;;13.00;72.00;;;;;;5067108;28;20020;-75
2021/05/23 09:39:12;;;;;;;4.78;1.38;;;12.90;72.60;;;;;;5076848;28;20028;-74
2021/05/23 09:41:38;;;;;;;4.28;1.00;;;12.80;71.10;;;;;;5073936;28;20024;-73
2021/05/23 09:44:27;;;;;;;3.40;1.17;;;12.90;73.00;;;;;;5054536;28;20029;-72
2021/05/23 09:47:02;;;;;;;5.68;1.50;;;13.10;73.80;;;;;;5056824;28;20023;-73
2021/05/23 09:49:30;;;;;;;4.75;1.25;;;13.40;71.60;;;;;;5071554;28;20036;-71
2021/05/23 09:52:02;;;;;;;6.70;1.50;;;13.60;72.30;;;;;;5065308;28;20486;-71
2021/05/23 09:54:30;;;;;;;5.47;1.38;;;13.70;71.30;;;;;;5067508;28;20028;-70
2021/05/23 09:56:57;;;;;;;3.90;1.13;;;13.80;70.80;;;;;;5066650;28;20020;-73
2021/05/23 09:59:25;;;;;;;2.90;1.08;;;13.80;70.80;;;;;;5067480;28;20486;-73
2021/05/23 10:01:51;;;;;;;5.10;1.20;;;13.90;71.20;;;;;;5066806;28;20017;-74
2021/05/23 10:04:25;;;;;;;4.75;1.67;;;14.00;69.20;;;;;;5051659;28;20025;-73
2021/05/23 10:07:17;;;;;;;5.85;1.27;;;14.00;69.70;;;;;;5065210;28;20029;-73
2021/05/23 10:09:42;;;;;;;5.18;1.10;;;14.00;70.40;;;;;;5066002;28;20525;-70
2021/05/23 10:12:14;;;;;;;5.88;1.52;;;14.10;68.40;;;;;;5071777;28;20064;-72
2021/05/23 10:14:40;;;;;;;3.30;0.95;;;14.10;69.60;;;;;;5045827;28;20029;-72
2021/05/23 10:17:07;;;;;;;3.70;1.10;;;14.00;70.80;;;;;;5062844;28;20044;-73
2021/05/23 10:19:34;;;;;;;8.45;1.20;;;14.10;71.30;;;;;;5063599;28;20032;-73
2021/05/23 10:22:03;;;;;;;5.82;1.20;;;14.20;69.00;;;;;;5062563;28;20458;-72
2021/05/23 10:24:50;;;;;;;5.10;1.20;;;14.20;67.70;;;;;;5062531;28;20033;-72
2021/05/23 10:27:25;;;;;;;5.40;1.33;;;14.10;66.80;;;;;;5061248;28;20028;-72
2021/05/23 10:29:53;;;;;;;5.35;1.02;;;14.00;67.60;;;;;;5065902;28;20098;-71
2021/05/23 10:32:22;;;;;;;3.35;1.23;;;14.00;68.70;;;;;;5062819;28;20347;-71
2021/05/23 10:34:49;;;;;;;3.25;0.90;;;13.90;69.50;;;;;;5061859;28;20120;-72
2021/05/23 10:37:24;;;;;;;6.03;1.20;;;14.00;69.30;;;;;;5062152;28;20017;-73
2021/05/23 10:39:51;;;;;;;2.45;0.80;;;14.00;69.10;;;;;;5063372;28;20040;-73
2021/05/23 10:42:21;;;;;;;4.07;1.40;;;13.90;68.90;;;;;;5063987;28;20025;-73
2021/05/23 10:44:50;;;;;;;3.40;1.20;;;13.90;69.10;;;;;;5063428;28;20032;-72
2021/05/23 10:47:21;;;;;;;3.42;0.95;;;14.00;69.00;;;;;;5061199;28;20055;-72
2021/05/23 10:49:55;;;;;;;5.07;1.63;;;14.00;69.70;;;;;;5044424;28;20028;-72
2021/05/23 10:52:23;;;;;;;4.53;1.10;;;14.20;69.50;;;;;;5062943;28;20029;-72
2021/05/23 10:55:03;;;;;;;6.53;1.08;;;14.30;68.40;;;;;;5066266;28;20090;-72
2021/05/23 10:57:45;;;;;;;4.63;1.25;;;14.50;69.30;;;;;;5059042;28;20033;-70
2021/05/23 11:00:15;;;;;;;6.05;1.50;;;14.70;68.90;;;;;;5056508;28;20025;-71
2021/05/23 11:02:43;;;;;;;2.95;0.90;;;14.80;67.20;;;;;;5060562;28;20082;-71
2021/05/23 11:05:23;;;;;;;3.22;1.05;;;14.90;68.00;;;;;;5061853;28;20040;-71
2021/05/23 11:07:56;;;;;;;3.60;0.90;;;15.10;68.20;;;;;;5062629;28;20750;-70
2021/05/23 11:10:26;;;;;;;5.18;0.88;;;15.20;68.40;;;;;;5063157;28;20406;-71
2021/05/23 11:12:58;;;;;;;4.15;0.90;;;15.40;69.80;;;;;;5063153;28;20032;-71
2021/05/23 11:15:25;;;;;;;2.75;0.85;;;15.70;70.90;;;;;;5063486;28;20036;-70
2021/05/23 11:17:53;;;;;;;3.92;0.95;;;16.10;66.00;;;;;;5063280;28;20474;-72
2021/05/23 11:20:22;;;;;;;2.28;0.70;;;16.70;66.00;;;;;;5042559;28;20033;-71
2021/05/23 11:23:14;;;;;;;4.80;1.33;;;17.80;66.50;;;;;;5062869;28;20025;-70
2021/05/23 11:25:40;;;;;;;3.90;0.93;;;18.60;56.50;;;;;;5059113;28;20033;-71
2021/05/23 11:28:07;;;;;;;1.58;0.80;;;18.80;56.10;;;;;;5060975;28;20070;-70
2021/05/23 11:30:38;;;;;;;3.10;1.00;;;18.70;55.80;;;;;;5062371;28;20028;-71
2021/05/23 11:33:12;;;;;;;2.22;1.20;;;18.80;52.80;;;;;;5060574;28;20104;-70
2021/05/23 11:35:41;;;;;;;2.30;1.00;;;19.10;52.70;;;;;;5063327;28;20060;-70
2021/05/23 11:38:07;;;;;;;3.58;1.23;;;19.60;50.40;;;;;;5062925;28;20035;-70
2021/05/23 11:40:41;;;;;;;4.13;1.15;;;20.20;50.70;;;;;;5062195;28;20025;-71
2021/05/23 11:43:12;;;;;;;5.25;1.10;;;19.90;50.10;;;;;;5062815;28;20044;-73
2021/05/23 11:45:43;;;;;;;4.90;1.02;;;19.30;49.70;;;;;;5063177;28;20558;-73
2021/05/23 11:48:09;;;;;;;;;;;19.10;53.30;;;;;;5043078;28;20526;-72
2021/05/23 11:50:37;;;;;;;4.00;1.10;;;19.40;52.40;;;;;;5063192;28;19908;-73
2021/05/23 11:53:03;;;;;;;2.67;1.00;;;19.10;50.10;;;;;;5063796;28;20368;-73
2021/05/23 11:55:31;;;;;;;3.47;1.00;;;18.60;50.60;;;;;;5063408;28;20032;-73
2021/05/23 11:58:11;;;;;;;3.63;0.90;;;18.60;49.80;;;;;;5044345;28;20556;-73
2021/05/23 12:00:38;;;;;;;2.35;0.90;;;18.60;50.10;;;;;;5062913;28;20399;-73
2021/05/23 12:03:05;;;;;;;1.67;1.00;;;18.30;52.00;;;;;;5059491;28;20039;-73
2021/05/23 12:05:43;;;;;;;2.55;0.70;;;18.00;53.60;;;;;;5061617;28;20029;-73
2021/05/23 12:08:23;;;;;;;2.92;0.90;;;17.90;54.40;;;;;;5062992;28;20402;-73
2021/05/23 12:11:03;;;;;;;2.53;0.82;;;18.20;54.30;;;;;;5063436;28;20044;-72
2021/05/23 12:13:37;;;;;;;2.90;0.82;;;18.50;50.30;;;;;;5065068;28;20036;-72
2021/05/23 12:16:03;;;;;;;4.47;0.90;;;18.50;52.70;;;;;;5041439;28;20066;-72
2021/05/23 12:18:43;;;;;;;3.50;1.48;;;18.60;54.40;;;;;;5061560;28;20024;-72
2021/05/23 12:21:17;;;;;;;2.30;0.70;;;18.50;51.80;;;;;;5061414;28;20079;-73
2021/05/23 12:23:46;;;;;;;3.42;1.10;;;18.40;53.30;;;;;;5062159;28;20442;-72
2021/05/23 12:26:15;;;;;;;3.92;1.00;;;18.40;52.30;;;;;;5059329;28;20067;-73
2021/05/23 12:28:48;;;;;;;4.85;1.25;;;18.90;54.50;;;;;;5059165;28;20149;-73
2021/05/23 12:31:16;;;;;;;5.50;1.58;;;19.70;51.90;;;;;;5060453;28;20429;-73
2021/05/23 12:33:52;;;;;;;3.63;0.95;;;20.10;47.70;;;;;;5061638;28;20066;-73
2021/05/23 12:36:19;;;;;;;3.72;1.25;;;20.20;48.90;;;;;;5064864;28;20029;-72
2021/05/23 12:38:55;;;;;;;2.78;1.08;;;20.00;48.70;;;;;;5062672;28;20190;-73
2021/05/23 12:41:21;;;;;;;1.70;1.08;;;19.60;49.60;;;;;;5061048;28;20020;-73
2021/05/23 12:43:47;;;;;;;2.78;1.00;;;19.30;50.20;;;;;;5059265;28;20043;-73
2021/05/23 12:46:15;;;;;;;2.58;1.15;;;19.10;49.30;;;;;;5061435;28;20029;-72
2021/05/23 12:48:46;;;;;;;2.25;0.85;;;18.80;50.70;;;;;;5060742;28;20028;-73
2021/05/23 12:51:23;;;;;;;2.85;1.08;;;18.60;50.10;;;;;;5060854;28;20371;-73